Time;durP1;ratioP1;P1;durP2;ratioP2;P2;SDS_P1;SDS_P2;PMS_P1;PMS_P2;Temp;Humidity;BMP_temperature;BMP_pressure;BME280_temperature;BME280_humidity;BME280_pressure;Samples;Min_cycle;Max_cycle;Signal;HPM_P1;HPM_P2
2022/09/24 00:01:52;;;;;;;9.30;6.80;;;11.80;91.80;;;;;;5008618;28;20406;-75
2022/09/24 00:04:18;;;;;;;9.85;6.65;;;11.80;91.90;;;;;;5007470;28;20033;-75
2022/09/24 00:06:46;;;;;;;7.28;5.75;;;11.80;92.10;;;;;;5020551;28;20429;-75
2022/09/24 00:09:13;;;;;;;8.25;6.57;;;11.70;92.30;;;;;;5005330;28;20208;-75
2022/09/24 00:11:39;;;;;;;9.52;6.57;;;11.70;92.30;;;;;;5000749;28;20022;-75
2022/09/24 00:14:05;;;;;;;9.60;7.05;;;11.70;92.30;;;;;;5008268;28;20180;-75
2022/09/24 00:16:32;;;;;;;8.55;6.10;;;11.60;92.30;;;;;;5007076;28;20080;-75
2022/09/24 00:18:58;;;;;;;11.30;7.03;;;11.60;92.40;;;;;;5008646;28;20418;-75
2022/09/24 00:21:27;;;;;;;8.95;7.07;;;11.60;92.30;;;;;;5011762;28;20034;-75
2022/09/24 00:23:59;;;;;;;10.23;6.88;;;11.60;92.40;;;;;;5021128;28;20044;-75
2022/09/24 00:29:12;;;;;;;9.30;6.75;;;11.60;92.60;;;;;;4994969;28;20041;-76
2022/09/24 00:31:38;;;;;;;11.02;6.63;;;11.60;93.00;;;;;;5012009;28;20054;-75
2022/09/24 00:34:03;;;;;;;14.40;6.80;;;11.60;93.10;;;;;;5023519;28;20056;-75
2022/09/24 00:36:29;;;;;;;11.30;7.07;;;11.50;93.30;;;;;;5011572;28;20033;-75
2022/09/24 00:38:57;;;;;;;9.25;6.38;;;11.50;93.50;;;;;;5010295;28;20049;-76
2022/09/24 00:41:26;;;;;;;9.57;7.13;;;11.50;93.70;;;;;;4997641;28;20470;-75
2022/09/24 00:43:52;;;;;;;12.70;7.05;;;11.50;93.60;;;;;;5009148;28;20501;-75
2022/09/24 00:46:31;;;;;;;10.70;7.60;;;11.50;93.70;;;;;;5000419;28;20157;-75
2022/09/24 00:49:09;;;;;;;12.02;7.50;;;11.50;93.60;;;;;;4998702;28;20034;-75
2022/09/24 00:51:35;;;;;;;11.30;7.80;;;11.50;93.70;;;;;;5010109;28;20422;-75
2022/09/24 00:54:06;;;;;;;11.32;7.95;;;11.50;93.70;;;;;;5009680;28;20037;-75
2022/09/24 00:56:35;;;;;;;11.27;7.80;;;11.40;93.80;;;;;;5009236;28;20050;-75
2022/09/24 00:59:03;;;;;;;9.85;7.97;;;11.40;93.70;;;;;;5011324;28;20030;-75
2022/09/24 01:01:29;;;;;;;14.77;8.00;;;11.40;93.80;;;;;;5009625;28;20040;-75
2022/09/24 01:03:56;;;;;;;13.57;8.32;;;11.40;93.80;;;;;;5000920;28;20034;-76
2022/09/24 01:06:24;;;;;;;11.60;8.52;;;11.40;93.80;;;;;;5010842;28;20042;-75
2022/09/24 01:08:50;;;;;;;9.95;8.32;;;11.40;94.00;;;;;;5009477;28;20053;-75
2022/09/24 01:11:24;;;;;;;10.60;8.05;;;11.40;94.10;;;;;;5010041;28;20069;-75
2022/09/24 01:14:12;;;;;;;11.82;8.48;;;11.40;94.20;;;;;;5010842;28;20034;-75
2022/09/24 01:16:59;;;;;;;13.30;8.40;;;11.40;94.30;;;;;;5023057;28;20331;-75
2022/09/24 01:19:47;;;;;;;12.40;10.20;;;11.40;94.30;;;;;;5004986;28;20451;-74
2022/09/24 01:22:40;;;;;;;14.07;10.73;;;11.40;94.40;;;;;;5008878;28;20414;-75
2022/09/24 01:25:19;;;;;;;14.93;11.20;;;11.40;94.50;;;;;;5003627;28;20406;-75
2022/09/24 01:28:00;;;;;;;15.68;11.13;;;11.40;94.50;;;;;;5014145;28;20112;-75
2022/09/24 01:30:31;;;;;;;;;;;11.40;94.60;;;;;;5010251;28;20030;-75
2022/09/24 01:33:12;;;;;;;15.27;11.75;;;11.40;94.70;;;;;;5008047;28;19916;-75
2022/09/24 01:35:42;;;;;;;18.17;13.07;;;11.40;94.80;;;;;;4998607;28;20030;-75
2022/09/24 01:38:15;;;;;;;20.63;14.90;;;11.40;94.80;;;;;;4995916;28;20065;-75
2022/09/24 01:40:42;;;;;;;21.73;16.25;;;11.40;94.80;;;;;;5003622;28;20082;-75
2022/09/24 01:43:10;;;;;;;23.40;16.27;;;11.40;94.90;;;;;;5008629;28;20083;-75
2022/09/24 01:45:38;;;;;;;21.50;15.48;;;11.30;94.90;;;;;;5018804;28;20133;-76
2022/09/24 01:48:05;;;;;;;19.98;15.25;;;11.40;95.00;;;;;;5008011;28;20057;-76
2022/09/24 01:50:40;;;;;;;23.05;15.70;;;11.40;95.00;;;;;;5009951;28;21958;-75
2022/09/24 01:53:17;;;;;;;22.48;15.55;;;11.40;95.00;;;;;;5002877;28;20616;-75
2022/09/24 01:55:48;;;;;;;22.88;16.80;;;11.40;95.10;;;;;;5009003;28;20458;-75
2022/09/24 01:58:18;;;;;;;;;;;11.40;95.10;;;;;;5009932;28;20055;-75
2022/09/24 02:00:46;;;;;;;24.42;16.38;;;11.40;95.20;;;;;;5008636;28;19905;-75
2022/09/24 02:03:16;;;;;;;23.95;16.98;;;11.40;95.30;;;;;;5021585;28;20034;-75
2022/09/24 02:05:56;;;;;;;26.20;18.10;;;11.40;95.40;;;;;;5003853;28;20042;-75
2022/09/24 02:08:30;;;;;;;27.48;18.67;;;11.40;95.40;;;;;;5000567;28;20110;-76
2022/09/24 02:11:05;;;;;;;25.50;17.98;;;11.40;95.50;;;;;;5000886;28;20505;-75
2022/09/24 02:13:38;;;;;;;22.13;17.33;;;11.40;95.50;;;;;;5006891;28;20030;-75
2022/09/24 02:16:06;;;;;;;26.55;18.15;;;11.40;95.60;;;;;;5008131;28;20022;-75
2022/09/24 02:18:35;;;;;;;28.35;18.30;;;11.40;95.70;;;;;;5008492;28;20060;-75
2022/09/24 02:21:04;;;;;;;25.80;19.02;;;11.40;95.70;;;;;;5009312;28;20041;-76
2022/09/24 02:23:32;;;;;;;26.73;18.58;;;11.40;95.80;;;;;;5013074;28;20033;-75
2022/09/24 02:26:01;;;;;;;28.15;19.58;;;11.40;95.80;;;;;;5008452;28;20434;-75
2022/09/24 02:28:27;;;;;;;27.38;19.45;;;11.40;96.00;;;;;;5005351;28;20041;-75
2022/09/24 02:30:59;;;;;;;28.05;19.73;;;11.40;96.00;;;;;;5016899;28;20100;-75
2022/09/24 02:36:12;;;;;;;31.90;21.98;;;11.40;96.00;;;;;;5004904;28;20406;-75
2022/09/24 02:38:37;;;;;;;33.75;23.15;;;11.40;96.10;;;;;;5016239;28;20053;-75
2022/09/24 02:41:06;;;;;;;35.38;23.40;;;11.40;96.20;;;;;;5005453;28;20036;-75
2022/09/24 02:43:33;;;;;;;36.47;24.60;;;11.40;96.30;;;;;;4999194;28;20508;-74
2022/09/24 02:45:59;;;;;;;35.10;23.60;;;11.40;96.30;;;;;;5011137;28;20099;-74
2022/09/24 02:48:24;;;;;;;38.95;25.83;;;11.40;96.40;;;;;;5011632;28;20038;-74
2022/09/24 02:50:50;;;;;;;37.65;25.50;;;11.40;96.40;;;;;;5008972;28;20124;-74
2022/09/24 02:53:15;;;;;;;36.53;24.70;;;11.40;96.50;;;;;;5006554;28;20040;-74
2022/09/24 02:55:41;;;;;;;36.13;24.33;;;11.30;96.60;;;;;;5007743;28;20516;-75
2022/09/24 02:58:06;;;;;;;36.17;25.15;;;11.30;96.60;;;;;;5008257;28;20038;-74
2022/09/24 03:00:32;;;;;;;37.85;26.30;;;11.30;96.70;;;;;;5014472;28;20060;-74
2022/09/24 03:02:58;;;;;;;38.72;26.20;;;11.30;96.70;;;;;;5011057;28;20033;-74
2022/09/24 03:05:23;;;;;;;41.50;27.13;;;11.30;96.70;;;;;;5019548;28;20052;-75
2022/09/24 03:07:50;;;;;;;42.85;28.52;;;11.30;96.80;;;;;;5007072;28;20045;-75
2022/09/24 03:10:15;;;;;;;39.28;26.85;;;11.30;96.90;;;;;;5008150;28;20052;-74
2022/09/24 03:12:42;;;;;;;39.70;25.80;;;11.30;97.00;;;;;;5008217;28;20034;-74
2022/09/24 03:15:08;;;;;;;40.38;27.08;;;11.30;97.00;;;;;;5008520;28;20029;-74
2022/09/24 03:17:34;;;;;;;38.47;25.13;;;11.30;97.00;;;;;;5001718;28;20397;-74
2022/09/24 03:19:59;;;;;;;42.35;27.05;;;11.20;97.00;;;;;;5020338;28;20030;-74
2022/09/24 03:22:25;;;;;;;38.40;25.90;;;11.20;97.10;;;;;;5003440;28;20152;-74
2022/09/24 03:24:50;;;;;;;39.05;25.83;;;11.30;97.20;;;;;;4999183;28;20045;-75
2022/09/24 03:27:16;;;;;;;36.83;25.42;;;11.30;97.30;;;;;;5007959;28;20066;-74
2022/09/24 03:32:25;;;;;;;41.38;25.30;;;11.30;97.30;;;;;;5008049;28;20040;-74
2022/09/24 03:34:51;;;;;;;43.35;25.77;;;11.30;97.40;;;;;;5006720;28;20026;-75
2022/09/24 03:37:16;;;;;;;41.28;26.45;;;11.20;97.40;;;;;;5008277;28;20134;-75
2022/09/24 03:39:42;;;;;;;45.45;27.92;;;11.20;97.50;;;;;;5004734;28;20029;-75
2022/09/24 03:42:07;;;;;;;37.90;26.33;;;11.20;97.50;;;;;;5008713;28;20124;-75
2022/09/24 03:44:33;;;;;;;47.15;27.00;;;11.10;97.60;;;;;;5008856;28;20030;-74
2022/09/24 03:46:58;;;;;;;43.97;28.10;;;11.10;97.60;;;;;;5008475;28;20065;-75
2022/09/24 03:49:24;;;;;;;43.47;27.70;;;11.20;97.70;;;;;;5007449;28;20034;-75
2022/09/24 03:51:50;;;;;;;43.63;28.52;;;11.10;97.70;;;;;;5007787;28;20022;-75
2022/09/24 03:54:15;;;;;;;44.58;28.23;;;11.10;97.80;;;;;;5001290;28;20605;-75
2022/09/24 03:56:41;;;;;;;50.15;30.40;;;11.10;97.80;;;;;;5012030;28;20513;-75
2022/09/24 03:59:09;;;;;;;48.33;29.15;;;11.10;97.80;;;;;;5014821;28;20104;-74
2022/09/24 04:01:36;;;;;;;53.47;31.42;;;11.10;97.90;;;;;;5023244;28;20071;-75
2022/09/24 04:04:02;;;;;;;48.92;31.10;;;11.10;98.00;;;;;;5013774;28;20253;-74
2022/09/24 04:06:28;;;;;;;51.25;31.38;;;11.10;98.00;;;;;;5023205;28;20038;-74
2022/09/24 04:08:54;;;;;;;53.97;33.03;;;11.10;97.90;;;;;;4997286;28;20442;-76
2022/09/24 04:11:20;;;;;;;58.22;32.63;;;11.10;98.00;;;;;;5000759;28;20040;-74
2022/09/24 04:13:45;;;;;;;51.50;30.33;;;11.10;98.00;;;;;;5013027;28;20350;-72
2022/09/24 04:16:11;;;;;;;47.08;28.48;;;11.10;98.00;;;;;;5010025;28;20041;-75
2022/09/24 04:18:38;;;;;;;51.05;30.42;;;11.10;98.10;;;;;;5011414;28;20041;-73
2022/09/24 04:21:04;;;;;;;50.67;29.20;;;11.00;98.10;;;;;;5019490;28;20056;-73
2022/09/24 04:23:30;;;;;;;49.90;28.75;;;11.10;98.20;;;;;;5012434;28;20025;-73
2022/09/24 04:25:56;;;;;;;45.95;27.73;;;11.10;98.10;;;;;;5001299;28;20120;-73
2022/09/24 04:28:22;;;;;;;46.55;27.95;;;11.00;98.20;;;;;;5010885;28;20192;-73
2022/09/24 04:30:47;;;;;;;46.35;27.85;;;11.10;98.30;;;;;;5010235;28;20149;-67
2022/09/24 04:33:13;;;;;;;46.35;29.42;;;11.10;98.30;;;;;;5010517;28;20148;-68
2022/09/24 04:35:38;;;;;;;48.80;29.08;;;11.00;98.20;;;;;;5011726;28;20152;-68
2022/09/24 04:38:04;;;;;;;45.78;27.40;;;11.00;98.30;;;;;;5008235;28;20053;-67
2022/09/24 04:40:30;;;;;;;44.33;27.40;;;11.00;98.30;;;;;;5016226;28;20104;-68
2022/09/24 04:42:56;;;;;;;42.85;27.92;;;11.00;98.40;;;;;;5007318;28;20450;-68
2022/09/24 04:45:23;;;;;;;42.67;27.80;;;11.00;98.40;;;;;;5024085;28;20049;-68
2022/09/24 04:47:52;;;;;;;44.17;27.63;;;11.00;98.50;;;;;;5010435;28;20034;-68
2022/09/24 04:50:18;;;;;;;45.00;28.50;;;11.00;98.50;;;;;;5011276;28;20048;-68
2022/09/24 04:52:44;;;;;;;49.78;29.67;;;11.00;98.60;;;;;;5009882;28;20458;-73
2022/09/24 04:55:09;;;;;;;45.95;27.05;;;11.00;98.60;;;;;;5009239;28;20113;-68
2022/09/24 04:57:35;;;;;;;48.25;28.58;;;11.00;98.60;;;;;;5008765;28;20057;-68
2022/09/24 05:00:08;;;;;;;51.22;28.92;;;11.00;98.60;;;;;;5003898;28;20454;-68
2022/09/24 05:02:34;;;;;;;48.05;27.95;;;11.00;98.60;;;;;;5005156;28;20105;-68
2022/09/24 05:04:59;;;;;;;46.47;28.42;;;10.90;98.60;;;;;;5018437;28;20144;-68
2022/09/24 05:07:25;;;;;;;41.00;25.90;;;11.00;98.70;;;;;;5010455;28;20062;-68
2022/09/24 05:09:50;;;;;;;49.95;27.42;;;11.00;98.70;;;;;;5018127;28;20037;-69
2022/09/24 05:12:17;;;;;;;45.78;27.00;;;11.00;98.70;;;;;;5011813;28;20354;-68
2022/09/24 05:14:42;;;;;;;42.88;26.98;;;11.00;98.80;;;;;;5010523;28;20065;-69
2022/09/24 05:17:08;;;;;;;43.88;26.88;;;10.90;98.80;;;;;;4996859;28;20058;-70
2022/09/24 05:19:33;;;;;;;44.05;28.08;;;11.00;98.80;;;;;;5001019;28;20117;-68
2022/09/24 05:21:58;;;;;;;40.03;26.77;;;10.90;98.80;;;;;;5010279;28;20026;-68
2022/09/24 05:24:24;;;;;;;42.00;26.40;;;11.00;98.90;;;;;;5017855;28;20442;-69
2022/09/24 05:27:08;;;;;;;41.80;26.15;;;10.90;98.90;;;;;;5013604;28;20382;-68
2022/09/24 05:29:38;;;;;;;41.40;24.50;;;11.00;99.00;;;;;;5010634;28;20025;-68
2022/09/24 05:32:08;;;;;;;39.42;25.20;;;11.00;99.00;;;;;;5009537;28;20188;-71
2022/09/24 05:34:34;;;;;;;37.00;23.67;;;11.00;99.00;;;;;;5018823;28;20034;-69
2022/09/24 05:37:00;;;;;;;38.92;25.92;;;11.00;99.00;;;;;;5016966;28;20051;-70
2022/09/24 05:39:27;;;;;;;42.22;24.67;;;11.00;99.00;;;;;;5012695;28;20359;-70
2022/09/24 05:41:52;;;;;;;39.60;24.38;;;11.00;99.00;;;;;;5010779;28;20025;-70
2022/09/24 05:44:20;;;;;;;42.60;23.77;;;11.00;99.00;;;;;;5010827;28;20053;-69
2022/09/24 05:46:46;;;;;;;37.83;24.02;;;11.00;99.10;;;;;;5010446;28;20100;-70
2022/09/24 05:49:12;;;;;;;40.92;23.33;;;11.00;99.10;;;;;;5008170;28;20029;-71
2022/09/24 05:51:37;;;;;;;42.33;25.83;;;11.00;99.10;;;;;;5002445;28;20109;-69
2022/09/24 05:54:03;;;;;;;40.50;25.83;;;11.00;99.10;;;;;;5006868;28;20033;-69
2022/09/24 05:56:28;;;;;;;40.97;24.77;;;11.00;99.10;;;;;;5009771;28;20132;-70
2022/09/24 05:58:54;;;;;;;36.47;24.75;;;11.00;99.10;;;;;;5000661;28;20054;-69
2022/09/24 06:01:19;;;;;;;44.58;26.27;;;11.10;99.20;;;;;;5003862;28;20030;-69
2022/09/24 06:03:45;;;;;;;44.47;25.35;;;11.00;99.20;;;;;;5010637;28;20367;-70
2022/09/24 06:06:10;;;;;;;43.60;27.70;;;11.10;99.20;;;;;;5007707;28;20107;-70
2022/09/24 06:08:36;;;;;;;41.72;25.20;;;11.10;99.20;;;;;;5005732;28;20030;-70
2022/09/24 06:11:04;;;;;;;43.05;24.90;;;11.10;99.20;;;;;;5021929;28;20041;-72
2022/09/24 06:13:32;;;;;;;41.38;25.98;;;11.10;99.30;;;;;;5007214;28;20029;-69
2022/09/24 06:16:09;;;;;;;41.20;24.13;;;11.10;99.20;;;;;;5000706;28;20327;-69
2022/09/24 06:18:37;;;;;;;38.45;22.27;;;11.10;99.20;;;;;;5009250;28;20118;-70
2022/09/24 06:21:06;;;;;;;39.22;23.05;;;11.10;99.30;;;;;;5009623;28;20427;-69
2022/09/24 06:23:32;;;;;;;40.47;22.77;;;11.20;99.30;;;;;;5006869;28;20081;-70
2022/09/24 06:25:58;;;;;;;33.97;21.40;;;11.20;99.30;;;;;;5007860;28;20062;-70
2022/09/24 06:28:26;;;;;;;41.80;21.83;;;11.30;99.40;;;;;;5008873;28;20088;-70
2022/09/24 06:30:52;;;;;;;32.95;20.67;;;11.20;99.30;;;;;;5009986;28;20442;-70
2022/09/24 06:33:22;;;;;;;33.38;19.85;;;11.30;99.30;;;;;;5011755;28;20033;-69
2022/09/24 06:35:47;;;;;;;38.33;21.08;;;11.30;99.20;;;;;;5017486;28;20021;-70
2022/09/24 06:38:15;;;;;;;39.53;21.15;;;11.30;99.20;;;;;;5011542;28;20034;-70
2022/09/24 06:40:42;;;;;;;34.58;21.48;;;11.40;99.20;;;;;;5008699;28;20151;-70
2022/09/24 06:43:09;;;;;;;36.20;20.85;;;11.50;99.30;;;;;;5007588;28;20411;-70
2022/09/24 06:45:35;;;;;;;35.75;21.70;;;11.40;99.10;;;;;;5007823;28;20470;-69
2022/09/24 06:48:02;;;;;;;34.92;21.60;;;11.40;99.10;;;;;;5008216;28;20033;-69
2022/09/24 06:50:30;;;;;;;34.60;21.25;;;11.40;99.20;;;;;;5007814;28;20056;-71
2022/09/24 06:52:56;;;;;;;31.25;20.58;;;11.50;99.20;;;;;;5005521;28;20442;-69
2022/09/24 06:55:22;;;;;;;30.15;19.90;;;11.50;99.10;;;;;;5007557;28;20037;-70
2022/09/24 06:57:47;;;;;;;30.15;19.70;;;11.40;99.00;;;;;;5002641;28;20549;-69
2022/09/24 07:00:14;;;;;;;25.77;18.90;;;11.50;99.10;;;;;;4999837;28;20203;-70
2022/09/24 07:02:40;;;;;;;29.67;20.40;;;11.60;99.10;;;;;;5008353;28;20465;-71
2022/09/24 07:05:07;;;;;;;27.85;18.95;;;11.60;99.00;;;;;;5008555;28;20034;-70
2022/09/24 07:07:33;;;;;;;31.00;20.13;;;11.60;99.00;;;;;;4996988;28;20450;-70
2022/09/24 07:10:00;;;;;;;26.45;18.90;;;11.70;99.10;;;;;;5017437;28;20151;-69
2022/09/24 07:12:28;;;;;;;27.17;18.25;;;11.60;98.90;;;;;;5006898;28;20032;-69
2022/09/24 07:14:54;;;;;;;29.63;19.02;;;11.70;99.00;;;;;;4993804;28;20023;-69
2022/09/24 07:17:20;;;;;;;29.25;19.02;;;11.80;98.80;;;;;;4996019;28;20183;-70
2022/09/24 07:19:45;;;;;;;31.80;19.10;;;11.80;98.80;;;;;;5017619;28;20034;-71
2022/09/24 07:22:11;;;;;;;30.20;18.70;;;11.80;98.90;;;;;;5013083;28;20419;-70
2022/09/24 07:24:36;;;;;;;24.10;18.55;;;11.90;98.80;;;;;;5006875;28;20063;-70
2022/09/24 07:27:05;;;;;;;24.05;17.83;;;11.90;98.80;;;;;;5008730;28;20091;-70
2022/09/24 07:29:31;;;;;;;32.13;18.23;;;12.00;98.80;;;;;;5011240;28;20068;-70
2022/09/24 07:31:56;;;;;;;27.08;18.90;;;12.00;98.80;;;;;;5012020;28;20435;-70
2022/09/24 07:34:22;;;;;;;31.35;19.25;;;12.10;98.80;;;;;;5013303;28;20038;-69
2022/09/24 07:36:47;;;;;;;29.70;18.67;;;12.10;98.80;;;;;;5012409;28;20419;-70
2022/09/24 07:39:13;;;;;;;26.90;18.55;;;12.20;98.80;;;;;;5010421;28;20151;-69
2022/09/24 07:41:39;;;;;;;28.52;18.17;;;12.30;98.70;;;;;;5012517;28;20366;-70
2022/09/24 07:44:06;;;;;;;27.13;18.60;;;12.20;98.40;;;;;;5011764;28;20054;-69
2022/09/24 07:46:32;;;;;;;26.83;19.10;;;12.30;98.50;;;;;;5008996;28;20076;-69
2022/09/24 07:48:58;;;;;;;25.98;18.23;;;12.40;98.30;;;;;;5010826;28;20374;-71
2022/09/24 07:51:26;;;;;;;27.67;18.73;;;12.30;98.20;;;;;;5009689;28;20109;-70
2022/09/24 07:53:52;;;;;;;26.17;17.70;;;12.40;98.30;;;;;;5010683;28;20036;-69
2022/09/24 07:56:18;;;;;;;27.80;18.23;;;12.40;97.90;;;;;;5011102;28;20050;-70
2022/09/24 07:58:44;;;;;;;23.45;17.63;;;12.50;97.90;;;;;;5012138;28;20447;-70
2022/09/24 08:01:09;;;;;;;26.27;18.30;;;12.50;97.90;;;;;;5010566;28;20124;-70
2022/09/24 08:03:35;;;;;;;27.30;18.40;;;12.60;97.80;;;;;;5011395;28;20037;-70
2022/09/24 08:06:03;;;;;;;26.42;18.48;;;12.60;97.80;;;;;;5003473;28;20447;-70
2022/09/24 08:08:28;;;;;;;25.67;17.75;;;12.70;97.60;;;;;;5004005;28;20046;-69
2022/09/24 08:10:54;;;;;;;26.60;18.05;;;12.90;97.80;;;;;;5011385;28;20389;-70
2022/09/24 08:13:19;;;;;;;25.85;17.17;;;13.00;97.70;;;;;;5011682;28;20029;-70
2022/09/24 08:15:45;;;;;;;28.58;18.75;;;12.80;97.30;;;;;;5011992;28;20511;-70
2022/09/24 08:18:10;;;;;;;23.90;17.33;;;12.90;97.30;;;;;;5009542;28;20312;-70
2022/09/24 08:20:37;;;;;;;24.42;17.90;;;12.90;97.10;;;;;;5012230;28;20037;-71
2022/09/24 08:23:05;;;;;;;24.42;17.73;;;13.00;97.20;;;;;;5015328;28;20102;-72
2022/09/24 08:25:31;;;;;;;25.08;16.25;;;13.10;97.20;;;;;;5004245;28;20092;-70
2022/09/24 08:28:04;;;;;;;23.40;16.13;;;13.10;97.10;;;;;;5002866;28;20120;-70
2022/09/24 08:30:30;;;;;;;28.25;16.48;;;12.90;96.20;;;;;;5012063;28;20057;-70
2022/09/24 08:32:56;;;;;;;24.88;17.05;;;12.80;96.80;;;;;;5013383;28;20053;-69
2022/09/24 08:35:22;;;;;;;22.05;16.58;;;13.00;96.70;;;;;;5021786;28;20141;-71
2022/09/24 08:37:47;;;;;;;26.42;16.73;;;12.80;96.60;;;;;;5010352;28;20458;-72
2022/09/24 08:40:18;;;;;;;23.38;16.35;;;12.80;96.70;;;;;;5010946;28;20030;-70
2022/09/24 08:42:50;;;;;;;;;;;12.90;96.90;;;;;;4998226;28;20022;-68
2022/09/24 08:48:12;;;;;;;23.42;16.50;;;12.90;96.90;;;;;;5010785;28;19965;-68
2022/09/24 08:50:46;;;;;;;26.67;16.88;;;12.90;96.70;;;;;;5011907;28;20026;-68
2022/09/24 08:53:24;;;;;;;24.05;16.88;;;12.80;96.50;;;;;;5009793;28;20116;-69
2022/09/24 08:55:56;;;;;;;24.65;16.08;;;12.80;96.50;;;;;;5010442;28;20096;-69
2022/09/24 08:58:26;;;;;;;26.83;17.27;;;12.80;96.50;;;;;;5009860;28;20096;-68
2022/09/24 09:01:10;;;;;;;24.02;17.13;;;12.80;96.60;;;;;;5011111;28;20466;-70
2022/09/24 09:03:46;;;;;;;27.67;17.02;;;12.80;96.60;;;;;;5010104;28;20423;-69
2022/09/24 09:06:49;;;;;;;26.38;17.92;;;12.80;96.80;;;;;;5021289;28;20084;-68
2022/09/24 09:09:22;;;;;;;26.48;18.15;;;12.80;96.80;;;;;;5010826;28;20045;-68
2022/09/24 09:12:03;;;;;;;26.73;18.80;;;12.70;96.90;;;;;;4998519;28;20038;-68
2022/09/24 09:14:37;;;;;;;;;;;12.70;96.80;;;;;;5020341;28;20086;-68
2022/09/24 09:17:30;;;;;;;25.23;18.15;;;12.70;96.80;;;;;;4999806;28;19913;-68
2022/09/24 09:19:58;;;;;;;28.35;19.77;;;12.70;97.00;;;;;;5010562;28;20044;-68
2022/09/24 09:22:31;;;;;;;31.65;19.42;;;12.50;96.80;;;;;;5009095;28;20030;-69
2022/09/24 09:25:02;;;;;;;32.67;20.42;;;12.50;97.00;;;;;;5008663;28;20034;-68
2022/09/24 09:27:28;;;;;;;27.67;19.98;;;12.50;97.10;;;;;;5010701;28;20037;-69
2022/09/24 09:29:56;;;;;;;30.50;20.50;;;12.60;97.20;;;;;;5010666;28;20026;-68
2022/09/24 09:32:51;;;;;;;32.03;21.35;;;12.60;97.10;;;;;;4997259;28;20026;-69
2022/09/24 09:35:27;;;;;;;30.75;21.88;;;12.60;97.40;;;;;;4990680;28;20364;-68
2022/09/24 09:38:37;;;;;;;34.45;22.52;;;12.60;97.40;;;;;;5008560;28;20100;-68
2022/09/24 09:41:16;;;;;;;30.98;21.08;;;12.80;97.40;;;;;;5009667;28;20057;-69
2022/09/24 09:43:42;;;;;;;31.33;21.55;;;12.80;97.40;;;;;;5008780;28;20033;-69
2022/09/24 09:46:24;;;;;;;33.15;22.33;;;12.80;97.30;;;;;;5006071;28;20031;-68
2022/09/24 09:48:54;;;;;;;32.83;20.27;;;13.00;97.30;;;;;;5008998;28;20041;-69
2022/09/24 09:51:23;;;;;;;32.35;20.70;;;13.10;97.00;;;;;;5005922;28;20026;-68
2022/09/24 09:54:00;;;;;;;29.15;20.45;;;12.90;96.90;;;;;;5008402;28;20034;-69
2022/09/24 09:56:28;;;;;;;27.42;19.63;;;13.00;96.70;;;;;;5007909;28;20057;-68
2022/09/24 09:59:06;;;;;;;27.55;19.48;;;13.10;96.90;;;;;;5008271;28;20034;-68
2022/09/24 10:01:34;;;;;;;27.02;18.88;;;13.10;96.70;;;;;;5010253;28;20061;-68
2022/09/24 10:04:04;;;;;;;27.60;18.08;;;13.10;96.50;;;;;;5009346;28;20033;-71
2022/09/24 10:06:32;;;;;;;28.88;18.20;;;13.10;96.40;;;;;;5004816;28;20105;-69
2022/09/24 10:09:18;;;;;;;28.38;20.13;;;13.20;96.30;;;;;;5004208;28;20048;-70
2022/09/24 10:11:44;;;;;;;28.42;18.40;;;13.30;96.20;;;;;;5009619;28;20026;-69
2022/09/24 10:14:12;;;;;;;26.83;19.23;;;13.50;96.10;;;;;;5010124;28;20627;-68
2022/09/24 10:16:46;;;;;;;27.33;18.65;;;13.80;96.40;;;;;;5010046;28;20074;-69
2022/09/24 10:19:22;;;;;;;24.42;18.67;;;13.80;95.80;;;;;;5008902;28;20506;-69
2022/09/24 10:21:49;;;;;;;28.50;17.67;;;13.90;96.00;;;;;;5018676;28;20061;-68
2022/09/24 10:24:26;;;;;;;26.35;17.83;;;13.70;95.30;;;;;;5006377;28;20160;-69
2022/09/24 10:26:52;;;;;;;23.67;17.65;;;13.70;95.40;;;;;;5007234;28;20122;-70
2022/09/24 10:32:18;;;;;;;26.13;17.67;;;13.50;94.80;;;;;;5002732;28;20160;-69
2022/09/24 10:34:57;;;;;;;23.00;17.35;;;13.30;94.80;;;;;;4996874;28;20442;-70
2022/09/24 10:37:23;;;;;;;28.17;18.30;;;13.40;95.10;;;;;;5009184;28;20025;-69
2022/09/24 10:40:15;;;;;;;25.90;18.50;;;13.40;95.10;;;;;;5001213;28;20041;-68
2022/09/24 10:42:40;;;;;;;27.48;19.30;;;13.50;95.20;;;;;;5005432;28;20107;-68
2022/09/24 10:45:15;;;;;;;28.10;18.88;;;13.50;95.20;;;;;;5009051;28;20037;-68
2022/09/24 10:48:13;;;;;;;25.80;18.52;;;13.60;94.90;;;;;;5008385;28;20473;-69
2022/09/24 10:51:00;;;;;;;25.17;18.08;;;13.70;95.30;;;;;;5011247;28;20396;-68
2022/09/24 10:53:59;;;;;;;26.58;17.33;;;13.80;95.30;;;;;;5014763;28;20045;-70
2022/09/24 10:56:45;;;;;;;24.77;18.70;;;14.20;95.50;;;;;;5003189;28;20176;-69
2022/09/24 10:59:13;;;;;;;25.00;17.55;;;14.00;94.90;;;;;;4995903;28;20026;-69
2022/09/24 11:01:54;;;;;;;27.08;16.63;;;13.90;94.40;;;;;;5021284;28;20045;-69
2022/09/24 11:04:50;;;;;;;25.60;18.15;;;13.90;94.40;;;;;;5006680;28;20022;-69
2022/09/24 11:07:30;;;;;;;22.95;15.95;;;14.30;95.00;;;;;;5008689;28;20461;-69
2022/09/24 11:10:20;;;;;;;24.13;16.00;;;14.40;93.90;;;;;;5006808;28;20073;-69
2022/09/24 11:13:06;;;;;;;23.65;16.92;;;14.60;94.10;;;;;;4998578;28;20026;-69
2022/09/24 11:16:09;;;;;;;23.33;16.35;;;14.60;93.50;;;;;;5001229;28;20061;-69
2022/09/24 11:18:54;;;;;;;19.92;15.10;;;14.40;93.20;;;;;;5008069;28;20038;-69
2022/09/24 11:21:46;;;;;;;21.90;16.88;;;14.50;93.60;;;;;;5008955;28;20025;-69
2022/09/24 11:24:40;;;;;;;22.42;15.27;;;14.40;93.40;;;;;;5006548;28;20484;-69
2022/09/24 11:27:33;;;;;;;19.08;14.70;;;14.30;93.60;;;;;;5006757;28;20391;-69
2022/09/24 11:30:13;;;;;;;19.90;14.68;;;14.10;93.30;;;;;;5008188;28;20034;-69
2022/09/24 11:33:07;;;;;;;24.45;16.33;;;14.10;93.60;;;;;;5004135;28;20030;-68
2022/09/24 11:36:17;;;;;;;21.08;15.05;;;14.10;93.70;;;;;;5022312;28;20041;-69
2022/09/24 11:39:00;;;;;;;22.00;15.32;;;14.10;93.80;;;;;;4977032;28;20083;-70
2022/09/24 11:41:37;;;;;;;17.88;14.38;;;14.10;93.80;;;;;;5016546;28;20030;-69
2022/09/24 11:44:26;;;;;;;25.48;16.13;;;14.10;93.90;;;;;;5008604;28;20022;-69
2022/09/24 11:47:03;;;;;;;20.95;15.52;;;14.00;93.50;;;;;;5011385;28;20500;-69
2022/09/24 11:49:47;;;;;;;22.88;15.75;;;14.00;93.80;;;;;;5012856;28;20109;-69
2022/09/24 11:52:33;;;;;;;21.90;15.60;;;14.30;94.50;;;;;;5008692;28;20026;-69
2022/09/24 11:55:23;;;;;;;22.88;16.08;;;14.10;94.00;;;;;;5002368;28;20124;-69
2022/09/24 11:58:17;;;;;;;21.73;15.73;;;14.30;94.80;;;;;;5001824;28;20081;-72
2022/09/24 12:00:52;;;;;;;23.67;16.63;;;14.30;94.30;;;;;;5008919;28;20045;-70
2022/09/24 12:03:45;;;;;;;20.55;14.80;;;14.40;94.40;;;;;;5017453;28;20442;-69
2022/09/24 12:06:22;;;;;;;23.05;15.48;;;14.20;94.00;;;;;;5003173;28;20661;-69
2022/09/24 12:09:15;;;;;;;23.88;15.85;;;14.20;94.00;;;;;;5013588;28;20089;-69
2022/09/24 12:11:48;;;;;;;20.65;14.98;;;14.10;94.20;;;;;;5009466;28;20105;-69
2022/09/24 12:14:20;;;;;;;21.42;15.75;;;14.10;94.50;;;;;;5008688;28;20049;-70
2022/09/24 12:16:50;;;;;;;21.15;14.90;;;13.90;94.40;;;;;;5012105;28;20120;-69
2022/09/24 12:19:24;;;;;;;23.38;15.57;;;14.00;94.70;;;;;;5010491;28;20088;-69
2022/09/24 12:21:52;;;;;;;21.58;15.45;;;14.00;94.90;;;;;;5005315;28;20025;-69
2022/09/24 12:24:42;;;;;;;19.73;15.23;;;14.00;95.10;;;;;;5022453;28;20068;-68
2022/09/24 12:27:14;;;;;;;21.92;15.60;;;14.10;95.20;;;;;;5011435;28;20034;-69
2022/09/24 12:32:55;;;;;;;20.98;15.70;;;14.10;95.40;;;;;;5015019;28;20037;-69
2022/09/24 12:35:24;;;;;;;22.55;15.38;;;14.10;95.60;;;;;;5011649;28;20038;-68
2022/09/24 12:38:02;;;;;;;23.52;15.90;;;14.10;95.50;;;;;;5009370;28;20034;-70
2022/09/24 12:40:57;;;;;;;21.08;15.70;;;14.00;95.60;;;;;;5006046;28;20027;-69
2022/09/24 12:43:45;;;;;;;22.05;16.13;;;13.90;95.60;;;;;;5010984;28;20396;-69
2022/09/24 12:46:41;;;;;;;21.52;15.27;;;13.80;95.50;;;;;;5011863;28;20414;-69
2022/09/24 12:49:25;;;;;;;24.67;17.23;;;13.70;95.70;;;;;;4988518;28;20046;-70
2022/09/24 12:52:13;;;;;;;24.02;17.15;;;13.70;96.00;;;;;;5011551;28;20057;-68
2022/09/24 12:54:38;;;;;;;23.08;18.00;;;13.60;96.30;;;;;;5000136;28;20057;-68
2022/09/24 12:57:21;;;;;;;24.83;18.02;;;13.60;96.40;;;;;;4995632;28;20049;-71
2022/09/24 12:59:56;;;;;;;24.27;17.23;;;13.60;96.50;;;;;;5011617;28;20050;-68
2022/09/24 13:02:28;;;;;;;25.17;18.65;;;13.60;96.60;;;;;;5010775;28;20026;-69
2022/09/24 13:05:26;;;;;;;26.10;18.48;;;13.80;96.90;;;;;;5010624;28;20057;-70
2022/09/24 13:08:24;;;;;;;27.17;18.92;;;13.90;96.90;;;;;;5008979;28;20033;-69
2022/09/24 13:10:55;;;;;;;29.23;17.80;;;14.00;96.80;;;;;;4986239;28;20460;-68